sensor_id;sensor_type;location;lat;lon;timestamp;P1;durP1;ratioP1;P2;durP2;ratioP2
53036;SDS011;38924;52.134;4.666;2022-07-23T00:02:06;438.50;;;403.08;;
53036;SDS011;38924;52.134;4.666;2022-07-23T00:04:32;466.30;;;428.83;;
53036;SDS011;38924;52.134;4.666;2022-07-23T00:06:59;437.25;;;400.35;;
53036;SDS011;38924;52.134;4.666;2022-07-23T00:09:25;474.00;;;434.90;;
53036;SDS011;38924;52.134;4.666;2022-07-23T00:11:50;429.08;;;394.85;;
53036;SDS011;38924;52.134;4.666;2022-07-23T00:14:16;425.55;;;390.48;;
53036;SDS011;38924;52.134;4.666;2022-07-23T00:16:42;465.92;;;428.33;;
53036;SDS011;38924;52.134;4.666;2022-07-23T00:19:07;464.83;;;426.83;;
53036;SDS011;38924;52.134;4.666;2022-07-23T00:21:33;453.95;;;417.70;;
53036;SDS011;38924;52.134;4.666;2022-07-23T00:23:59;447.13;;;410.95;;
53036;SDS011;38924;52.134;4.666;2022-07-23T00:26:24;462.33;;;424.92;;
53036;SDS011;38924;52.134;4.666;2022-07-23T00:28:50;444.10;;;408.48;;
53036;SDS011;38924;52.134;4.666;2022-07-23T00:31:16;441.15;;;406.77;;
53036;SDS011;38924;52.134;4.666;2022-07-23T00:33:41;448.10;;;413.17;;
53036;SDS011;38924;52.134;4.666;2022-07-23T00:36:07;423.08;;;388.25;;
53036;SDS011;38924;52.134;4.666;2022-07-23T00:38:33;436.10;;;400.52;;
53036;SDS011;38924;52.134;4.666;2022-07-23T00:40:59;433.60;;;398.98;;
53036;SDS011;38924;52.134;4.666;2022-07-23T00:43:24;419.48;;;384.45;;
53036;SDS011;38924;52.134;4.666;2022-07-23T00:45:50;462.92;;;424.17;;
53036;SDS011;38924;52.134;4.666;2022-07-23T00:48:16;439.60;;;403.88;;
53036;SDS011;38924;52.134;4.666;2022-07-23T00:50:42;438.52;;;401.98;;
53036;SDS011;38924;52.134;4.666;2022-07-23T00:53:08;453.85;;;416.10;;
53036;SDS011;38924;52.134;4.666;2022-07-23T00:55:34;420.70;;;387.13;;
53036;SDS011;38924;52.134;4.666;2022-07-23T00:57:59;411.90;;;379.60;;
53036;SDS011;38924;52.134;4.666;2022-07-23T01:00:26;414.83;;;381.77;;
53036;SDS011;38924;52.134;4.666;2022-07-23T01:02:58;404.33;;;372.00;;
53036;SDS011;38924;52.134;4.666;2022-07-23T01:05:26;409.35;;;376.70;;
53036;SDS011;38924;52.134;4.666;2022-07-23T01:07:52;414.52;;;381.60;;
53036;SDS011;38924;52.134;4.666;2022-07-23T01:10:17;404.38;;;371.85;;
53036;SDS011;38924;52.134;4.666;2022-07-23T01:13:03;417.10;;;384.00;;
53036;SDS011;38924;52.134;4.666;2022-07-23T01:15:30;399.90;;;367.73;;
53036;SDS011;38924;52.134;4.666;2022-07-23T01:17:55;423.00;;;389.42;;
53036;SDS011;38924;52.134;4.666;2022-07-23T01:20:21;439.90;;;404.20;;
53036;SDS011;38924;52.134;4.666;2022-07-23T01:22:47;422.05;;;388.08;;
53036;SDS011;38924;52.134;4.666;2022-07-23T01:25:13;449.02;;;413.02;;
53036;SDS011;38924;52.134;4.666;2022-07-23T01:27:43;415.27;;;380.95;;
53036;SDS011;38924;52.134;4.666;2022-07-23T01:30:09;423.77;;;390.13;;
53036;SDS011;38924;52.134;4.666;2022-07-23T01:32:35;413.38;;;379.50;;
53036;SDS011;38924;52.134;4.666;2022-07-23T01:35:01;421.40;;;388.08;;
53036;SDS011;38924;52.134;4.666;2022-07-23T01:37:27;394.48;;;364.33;;
53036;SDS011;38924;52.134;4.666;2022-07-23T01:39:54;395.85;;;364.42;;
53036;SDS011;38924;52.134;4.666;2022-07-23T01:42:19;396.30;;;364.50;;
53036;SDS011;38924;52.134;4.666;2022-07-23T01:44:45;414.33;;;381.67;;
53036;SDS011;38924;52.134;4.666;2022-07-23T01:47:17;424.77;;;390.75;;
53036;SDS011;38924;52.134;4.666;2022-07-23T01:49:42;420.17;;;385.92;;
53036;SDS011;38924;52.134;4.666;2022-07-23T01:52:27;421.30;;;385.75;;
53036;SDS011;38924;52.134;4.666;2022-07-23T01:54:53;400.92;;;366.95;;
53036;SDS011;38924;52.134;4.666;2022-07-23T01:57:18;416.85;;;383.02;;
53036;SDS011;38924;52.134;4.666;2022-07-23T01:59:44;399.63;;;367.70;;
53036;SDS011;38924;52.134;4.666;2022-07-23T02:02:10;417.08;;;384.92;;
53036;SDS011;38924;52.134;4.666;2022-07-23T02:04:36;410.52;;;377.75;;
53036;SDS011;38924;52.134;4.666;2022-07-23T02:07:03;399.95;;;367.55;;
53036;SDS011;38924;52.134;4.666;2022-07-23T02:09:29;398.60;;;366.85;;
53036;SDS011;38924;52.134;4.666;2022-07-23T02:11:55;388.95;;;358.95;;
53036;SDS011;38924;52.134;4.666;2022-07-23T02:14:20;389.70;;;357.77;;
53036;SDS011;38924;52.134;4.666;2022-07-23T02:16:46;379.65;;;349.88;;
53036;SDS011;38924;52.134;4.666;2022-07-23T02:19:17;390.35;;;358.92;;
53036;SDS011;38924;52.134;4.666;2022-07-23T02:21:42;405.73;;;373.05;;
53036;SDS011;38924;52.134;4.666;2022-07-23T02:24:08;360.52;;;332.10;;
53036;SDS011;38924;52.134;4.666;2022-07-23T02:26:34;377.23;;;346.60;;
53036;SDS011;38924;52.134;4.666;2022-07-23T02:29:02;380.88;;;350.00;;
53036;SDS011;38924;52.134;4.666;2022-07-23T02:31:28;405.15;;;371.80;;
53036;SDS011;38924;52.134;4.666;2022-07-23T02:33:56;364.92;;;335.88;;
53036;SDS011;38924;52.134;4.666;2022-07-23T02:36:22;365.77;;;336.70;;
53036;SDS011;38924;52.134;4.666;2022-07-23T02:38:48;381.20;;;350.00;;
53036;SDS011;38924;52.134;4.666;2022-07-23T02:41:13;365.27;;;336.67;;
53036;SDS011;38924;52.134;4.666;2022-07-23T02:43:40;394.52;;;363.17;;
53036;SDS011;38924;52.134;4.666;2022-07-23T02:46:06;385.67;;;355.63;;
53036;SDS011;38924;52.134;4.666;2022-07-23T02:48:31;368.88;;;339.80;;
53036;SDS011;38924;52.134;4.666;2022-07-23T02:50:58;377.25;;;347.58;;
53036;SDS011;38924;52.134;4.666;2022-07-23T02:53:29;377.05;;;347.95;;
53036;SDS011;38924;52.134;4.666;2022-07-23T02:55:55;358.25;;;329.33;;
53036;SDS011;38924;52.134;4.666;2022-07-23T02:58:21;395.65;;;364.88;;
53036;SDS011;38924;52.134;4.666;2022-07-23T03:00:47;375.85;;;345.27;;
53036;SDS011;38924;52.134;4.666;2022-07-23T03:03:13;392.70;;;361.33;;
53036;SDS011;38924;52.134;4.666;2022-07-23T03:05:38;405.05;;;372.75;;
53036;SDS011;38924;52.134;4.666;2022-07-23T03:08:04;361.55;;;333.15;;
53036;SDS011;38924;52.134;4.666;2022-07-23T03:10:33;374.30;;;344.70;;
53036;SDS011;38924;52.134;4.666;2022-07-23T03:12:59;370.60;;;341.20;;
53036;SDS011;38924;52.134;4.666;2022-07-23T03:15:24;390.88;;;359.45;;
53036;SDS011;38924;52.134;4.666;2022-07-23T03:17:50;403.00;;;370.88;;
53036;SDS011;38924;52.134;4.666;2022-07-23T03:20:16;394.73;;;363.80;;
53036;SDS011;38924;52.134;4.666;2022-07-23T03:22:41;365.00;;;335.92;;
53036;SDS011;38924;52.134;4.666;2022-07-23T03:25:07;361.48;;;333.45;;
53036;SDS011;38924;52.134;4.666;2022-07-23T03:27:34;374.27;;;344.80;;
53036;SDS011;38924;52.134;4.666;2022-07-23T03:30:00;390.92;;;358.33;;
53036;SDS011;38924;52.134;4.666;2022-07-23T03:32:26;363.15;;;334.15;;
53036;SDS011;38924;52.134;4.666;2022-07-23T03:35:02;378.15;;;348.35;;
53036;SDS011;38924;52.134;4.666;2022-07-23T03:37:28;374.40;;;345.73;;
53036;SDS011;38924;52.134;4.666;2022-07-23T03:39:56;382.48;;;352.25;;
53036;SDS011;38924;52.134;4.666;2022-07-23T03:42:22;388.50;;;356.90;;
53036;SDS011;38924;52.134;4.666;2022-07-23T03:44:47;402.60;;;371.83;;
53036;SDS011;38924;52.134;4.666;2022-07-23T03:47:13;382.08;;;351.30;;
53036;SDS011;38924;52.134;4.666;2022-07-23T03:49:39;385.42;;;354.95;;
53036;SDS011;38924;52.134;4.666;2022-07-23T03:52:05;383.02;;;351.63;;
53036;SDS011;38924;52.134;4.666;2022-07-23T03:54:31;566.50;;;508.42;;
53036;SDS011;38924;52.134;4.666;2022-07-23T03:56:57;466.05;;;423.90;;
53036;SDS011;38924;52.134;4.666;2022-07-23T03:59:23;429.33;;;393.33;;
53036;SDS011;38924;52.134;4.666;2022-07-23T04:01:54;423.20;;;389.40;;
53036;SDS011;38924;52.134;4.666;2022-07-23T04:04:23;416.95;;;383.23;;
53036;SDS011;38924;52.134;4.666;2022-07-23T04:06:49;390.27;;;359.65;;
53036;SDS011;38924;52.134;4.666;2022-07-23T04:09:15;383.15;;;352.65;;
53036;SDS011;38924;52.134;4.666;2022-07-23T04:11:43;388.80;;;357.42;;
53036;SDS011;38924;52.134;4.666;2022-07-23T04:14:09;385.10;;;353.33;;
53036;SDS011;38924;52.134;4.666;2022-07-23T04:16:35;390.08;;;358.85;;
53036;SDS011;38924;52.134;4.666;2022-07-23T04:19:01;367.05;;;338.38;;
53036;SDS011;38924;52.134;4.666;2022-07-23T04:21:31;391.85;;;360.50;;
53036;SDS011;38924;52.134;4.666;2022-07-23T04:23:57;396.25;;;364.10;;
53036;SDS011;38924;52.134;4.666;2022-07-23T04:26:23;384.42;;;352.67;;
53036;SDS011;38924;52.134;4.666;2022-07-23T04:28:48;445.55;;;405.25;;
53036;SDS011;38924;52.134;4.666;2022-07-23T04:31:14;446.23;;;405.17;;
53036;SDS011;38924;52.134;4.666;2022-07-23T04:33:40;428.17;;;392.25;;
53036;SDS011;38924;52.134;4.666;2022-07-23T04:36:07;422.80;;;388.75;;
53036;SDS011;38924;52.134;4.666;2022-07-23T04:38:32;384.55;;;352.52;;
53036;SDS011;38924;52.134;4.666;2022-07-23T04:41:01;386.25;;;354.98;;
53036;SDS011;38924;52.134;4.666;2022-07-23T04:43:26;382.40;;;351.58;;
53036;SDS011;38924;52.134;4.666;2022-07-23T04:45:53;504.00;;;455.77;;
53036;SDS011;38924;52.134;4.666;2022-07-23T04:48:19;438.02;;;400.00;;
53036;SDS011;38924;52.134;4.666;2022-07-23T04:50:46;417.33;;;383.30;;
53036;SDS011;38924;52.134;4.666;2022-07-23T04:53:19;390.25;;;359.10;;
53036;SDS011;38924;52.134;4.666;2022-07-23T04:55:46;411.33;;;377.38;;
53036;SDS011;38924;52.134;4.666;2022-07-23T04:58:12;414.77;;;380.73;;
53036;SDS011;38924;52.134;4.666;2022-07-23T05:00:38;422.73;;;389.92;;
53036;SDS011;38924;52.134;4.666;2022-07-23T05:03:04;412.65;;;380.10;;
53036;SDS011;38924;52.134;4.666;2022-07-23T05:05:32;417.00;;;383.98;;
53036;SDS011;38924;52.134;4.666;2022-07-23T05:08:12;401.20;;;370.25;;
53036;SDS011;38924;52.134;4.666;2022-07-23T05:10:39;419.35;;;385.42;;
53036;SDS011;38924;52.134;4.666;2022-07-23T05:13:05;627.15;;;561.75;;
53036;SDS011;38924;52.134;4.666;2022-07-23T05:15:31;497.77;;;452.27;;
53036;SDS011;38924;52.134;4.666;2022-07-23T05:17:57;429.38;;;393.60;;
53036;SDS011;38924;52.134;4.666;2022-07-23T05:20:22;451.00;;;414.17;;
53036;SDS011;38924;52.134;4.666;2022-07-23T05:22:48;424.77;;;390.75;;
53036;SDS011;38924;52.134;4.666;2022-07-23T05:25:14;401.77;;;370.75;;
53036;SDS011;38924;52.134;4.666;2022-07-23T05:27:39;428.60;;;394.30;;
53036;SDS011;38924;52.134;4.666;2022-07-23T05:30:05;439.52;;;404.63;;
53036;SDS011;38924;52.134;4.666;2022-07-23T05:32:34;427.35;;;392.02;;
53036;SDS011;38924;52.134;4.666;2022-07-23T05:35:10;424.48;;;388.80;;
53036;SDS011;38924;52.134;4.666;2022-07-23T05:37:39;469.15;;;429.00;;
53036;SDS011;38924;52.134;4.666;2022-07-23T05:40:05;453.45;;;417.48;;
53036;SDS011;38924;52.134;4.666;2022-07-23T05:42:37;447.13;;;409.77;;
53036;SDS011;38924;52.134;4.666;2022-07-23T05:45:07;454.63;;;417.50;;
53036;SDS011;38924;52.134;4.666;2022-07-23T05:47:43;438.65;;;404.83;;
53036;SDS011;38924;52.134;4.666;2022-07-23T05:50:10;438.23;;;404.08;;
53036;SDS011;38924;52.134;4.666;2022-07-23T05:52:45;401.50;;;369.95;;
53036;SDS011;38924;52.134;4.666;2022-07-23T05:55:43;463.88;;;425.27;;
53036;SDS011;38924;52.134;4.666;2022-07-23T05:58:09;505.83;;;464.15;;
53036;SDS011;38924;52.134;4.666;2022-07-23T06:00:35;592.45;;;545.30;;
53036;SDS011;38924;52.134;4.666;2022-07-23T06:03:00;613.58;;;561.72;;
53036;SDS011;38924;52.134;4.666;2022-07-23T06:05:28;653.50;;;598.47;;
53036;SDS011;38924;52.134;4.666;2022-07-23T06:07:56;706.60;;;648.03;;
53036;SDS011;38924;52.134;4.666;2022-07-23T06:10:23;760.35;;;696.03;;
53036;SDS011;38924;52.134;4.666;2022-07-23T06:12:49;775.95;;;708.88;;
53036;SDS011;38924;52.134;4.666;2022-07-23T06:15:15;854.17;;;777.17;;
53036;SDS011;38924;52.134;4.666;2022-07-23T06:17:40;903.78;;;823.00;;
53036;SDS011;38924;52.134;4.666;2022-07-23T06:20:07;952.80;;;862.97;;
53036;SDS011;38924;52.134;4.666;2022-07-23T06:22:33;1025.90;;;925.08;;
53036;SDS011;38924;52.134;4.666;2022-07-23T06:24:58;1172.60;;;999.90;;
53036;SDS011;38924;52.134;4.666;2022-07-23T06:27:24;1228.93;;;999.90;;
53036;SDS011;38924;52.134;4.666;2022-07-23T06:29:49;1262.75;;;999.90;;
53036;SDS011;38924;52.134;4.666;2022-07-23T06:32:15;1217.85;;;999.90;;
53036;SDS011;38924;52.134;4.666;2022-07-23T06:34:47;1185.93;;;999.90;;
53036;SDS011;38924;52.134;4.666;2022-07-23T06:37:13;1292.32;;;999.90;;
53036;SDS011;38924;52.134;4.666;2022-07-23T06:39:38;1309.32;;;999.90;;
53036;SDS011;38924;52.134;4.666;2022-07-23T06:42:04;1338.85;;;999.90;;
53036;SDS011;38924;52.134;4.666;2022-07-23T06:44:43;1380.95;;;999.90;;
53036;SDS011;38924;52.134;4.666;2022-07-23T06:47:08;1319.35;;;999.90;;
53036;SDS011;38924;52.134;4.666;2022-07-23T06:49:35;1345.28;;;999.90;;
53036;SDS011;38924;52.134;4.666;2022-07-23T06:52:00;1371.68;;;999.90;;
53036;SDS011;38924;52.134;4.666;2022-07-23T06:54:26;1237.47;;;999.90;;
53036;SDS011;38924;52.134;4.666;2022-07-23T06:56:51;1414.47;;;999.90;;
53036;SDS011;38924;52.134;4.666;2022-07-23T06:59:17;1263.38;;;999.90;;
53036;SDS011;38924;52.134;4.666;2022-07-23T07:01:43;1388.78;;;999.90;;
53036;SDS011;38924;52.134;4.666;2022-07-23T07:04:08;1445.55;;;999.90;;
53036;SDS011;38924;52.134;4.666;2022-07-23T07:06:34;1404.68;;;999.90;;
53036;SDS011;38924;52.134;4.666;2022-07-23T07:09:00;1451.03;;;999.90;;
53036;SDS011;38924;52.134;4.666;2022-07-23T07:11:25;1313.18;;;999.90;;
53036;SDS011;38924;52.134;4.666;2022-07-23T07:13:51;1462.28;;;999.90;;
53036;SDS011;38924;52.134;4.666;2022-07-23T07:16:17;1418.88;;;999.90;;
53036;SDS011;38924;52.134;4.666;2022-07-23T07:18:45;1476.00;;;999.90;;
53036;SDS011;38924;52.134;4.666;2022-07-23T07:21:10;1425.07;;;999.90;;
53036;SDS011;38924;52.134;4.666;2022-07-23T07:23:36;1432.72;;;999.90;;
53036;SDS011;38924;52.134;4.666;2022-07-23T07:26:02;1454.15;;;999.90;;
53036;SDS011;38924;52.134;4.666;2022-07-23T07:28:27;1405.03;;;999.90;;
53036;SDS011;38924;52.134;4.666;2022-07-23T07:30:53;1410.68;;;999.90;;
53036;SDS011;38924;52.134;4.666;2022-07-23T07:33:19;1459.97;;;999.90;;
53036;SDS011;38924;52.134;4.666;2022-07-23T07:35:47;1447.70;;;999.90;;
53036;SDS011;38924;52.134;4.666;2022-07-23T07:38:13;1433.57;;;999.90;;
53036;SDS011;38924;52.134;4.666;2022-07-23T07:40:39;1437.35;;;999.90;;
53036;SDS011;38924;52.134;4.666;2022-07-23T07:43:07;1404.25;;;999.90;;
53036;SDS011;38924;52.134;4.666;2022-07-23T07:45:32;1459.60;;;999.90;;
53036;SDS011;38924;52.134;4.666;2022-07-23T07:47:58;1407.32;;;999.90;;
53036;SDS011;38924;52.134;4.666;2022-07-23T07:50:29;1340.57;;;999.90;;
53036;SDS011;38924;52.134;4.666;2022-07-23T07:52:57;1439.78;;;999.90;;
53036;SDS011;38924;52.134;4.666;2022-07-23T07:55:23;1408.35;;;999.90;;
53036;SDS011;38924;52.134;4.666;2022-07-23T07:57:51;1397.18;;;999.90;;
53036;SDS011;38924;52.134;4.666;2022-07-23T08:00:17;1425.75;;;999.90;;
53036;SDS011;38924;52.134;4.666;2022-07-23T08:02:47;1386.80;;;999.90;;
53036;SDS011;38924;52.134;4.666;2022-07-23T08:05:13;1399.20;;;999.90;;
53036;SDS011;38924;52.134;4.666;2022-07-23T08:07:39;1421.03;;;999.90;;
53036;SDS011;38924;52.134;4.666;2022-07-23T08:10:08;1395.57;;;999.90;;
53036;SDS011;38924;52.134;4.666;2022-07-23T08:12:39;1415.60;;;999.90;;
53036;SDS011;38924;52.134;4.666;2022-07-23T08:15:05;1368.60;;;999.90;;
53036;SDS011;38924;52.134;4.666;2022-07-23T08:17:31;1379.30;;;999.90;;
53036;SDS011;38924;52.134;4.666;2022-07-23T08:19:57;1474.47;;;999.90;;
53036;SDS011;38924;52.134;4.666;2022-07-23T08:22:22;1365.18;;;999.90;;
53036;SDS011;38924;52.134;4.666;2022-07-23T08:24:48;1376.30;;;999.90;;
53036;SDS011;38924;52.134;4.666;2022-07-23T08:27:14;1374.40;;;999.90;;
53036;SDS011;38924;52.134;4.666;2022-07-23T08:29:39;1326.40;;;999.90;;
53036;SDS011;38924;52.134;4.666;2022-07-23T08:32:05;1371.10;;;999.90;;
53036;SDS011;38924;52.134;4.666;2022-07-23T08:34:31;1414.82;;;999.90;;
53036;SDS011;38924;52.134;4.666;2022-07-23T08:36:56;1437.15;;;999.90;;
53036;SDS011;38924;52.134;4.666;2022-07-23T08:39:22;1331.10;;;999.90;;
53036;SDS011;38924;52.134;4.666;2022-07-23T08:41:48;1326.05;;;999.90;;
53036;SDS011;38924;52.134;4.666;2022-07-23T08:44:15;1379.13;;;999.90;;
53036;SDS011;38924;52.134;4.666;2022-07-23T08:46:41;1425.72;;;999.90;;
53036;SDS011;38924;52.134;4.666;2022-07-23T08:49:07;1384.65;;;999.90;;
53036;SDS011;38924;52.134;4.666;2022-07-23T08:51:33;1372.50;;;999.90;;
53036;SDS011;38924;52.134;4.666;2022-07-23T08:53:59;1322.22;;;999.90;;
53036;SDS011;38924;52.134;4.666;2022-07-23T08:56:25;1400.32;;;999.90;;
53036;SDS011;38924;52.134;4.666;2022-07-23T08:58:53;1368.95;;;999.90;;
53036;SDS011;38924;52.134;4.666;2022-07-23T09:01:18;1367.90;;;999.90;;
53036;SDS011;38924;52.134;4.666;2022-07-23T09:03:44;1407.80;;;999.90;;
53036;SDS011;38924;52.134;4.666;2022-07-23T09:06:10;1374.20;;;999.90;;
53036;SDS011;38924;52.134;4.666;2022-07-23T09:08:42;1345.63;;;999.90;;
53036;SDS011;38924;52.134;4.666;2022-07-23T09:11:09;1407.00;;;999.90;;
53036;SDS011;38924;52.134;4.666;2022-07-23T09:13:39;1371.07;;;999.90;;
53036;SDS011;38924;52.134;4.666;2022-07-23T09:18:43;1355.00;;;999.90;;
53036;SDS011;38924;52.134;4.666;2022-07-23T09:21:13;1361.05;;;999.90;;
53036;SDS011;38924;52.134;4.666;2022-07-23T09:23:43;1393.60;;;999.90;;
53036;SDS011;38924;52.134;4.666;2022-07-23T09:26:23;1316.97;;;999.90;;
53036;SDS011;38924;52.134;4.666;2022-07-23T09:28:52;1372.45;;;999.90;;
53036;SDS011;38924;52.134;4.666;2022-07-23T09:31:19;1356.05;;;999.90;;
53036;SDS011;38924;52.134;4.666;2022-07-23T09:33:45;1372.28;;;999.90;;
53036;SDS011;38924;52.134;4.666;2022-07-23T09:36:14;1390.40;;;999.90;;
53036;SDS011;38924;52.134;4.666;2022-07-23T09:38:52;1385.38;;;999.90;;
53036;SDS011;38924;52.134;4.666;2022-07-23T09:41:18;1348.03;;;999.90;;
53036;SDS011;38924;52.134;4.666;2022-07-23T09:43:44;1396.38;;;999.90;;
53036;SDS011;38924;52.134;4.666;2022-07-23T09:46:19;1371.57;;;999.90;;
53036;SDS011;38924;52.134;4.666;2022-07-23T09:48:46;1358.85;;;999.90;;
53036;SDS011;38924;52.134;4.666;2022-07-23T09:51:12;1333.22;;;999.90;;
53036;SDS011;38924;52.134;4.666;2022-07-23T09:53:39;1344.53;;;999.90;;
53036;SDS011;38924;52.134;4.666;2022-07-23T09:56:05;1316.28;;;999.90;;
53036;SDS011;38924;52.134;4.666;2022-07-23T09:58:31;1329.47;;;999.90;;
53036;SDS011;38924;52.134;4.666;2022-07-23T10:00:57;1377.72;;;999.90;;
53036;SDS011;38924;52.134;4.666;2022-07-23T10:03:23;1375.18;;;999.90;;
53036;SDS011;38924;52.134;4.666;2022-07-23T10:06:15;1304.70;;;999.90;;
53036;SDS011;38924;52.134;4.666;2022-07-23T10:11:44;1377.20;;;999.90;;
53036;SDS011;38924;52.134;4.666;2022-07-23T10:14:35;1357.15;;;999.90;;
53036;SDS011;38924;52.134;4.666;2022-07-23T10:17:04;1359.55;;;999.90;;
53036;SDS011;38924;52.134;4.666;2022-07-23T10:19:30;1351.82;;;999.90;;
53036;SDS011;38924;52.134;4.666;2022-07-23T10:30:07;1406.38;;;999.90;;
53036;SDS011;38924;52.134;4.666;2022-07-23T10:32:40;1355.07;;;999.90;;
53036;SDS011;38924;52.134;4.666;2022-07-23T10:35:21;1347.70;;;999.90;;
53036;SDS011;38924;52.134;4.666;2022-07-23T10:37:50;1366.85;;;999.90;;
53036;SDS011;38924;52.134;4.666;2022-07-23T10:40:18;1391.10;;;999.90;;
53036;SDS011;38924;52.134;4.666;2022-07-23T10:42:45;1375.13;;;999.90;;
53036;SDS011;38924;52.134;4.666;2022-07-23T10:47:54;1456.78;;;999.90;;
53036;SDS011;38924;52.134;4.666;2022-07-23T10:50:24;1312.97;;;999.90;;
53036;SDS011;38924;52.134;4.666;2022-07-23T10:58:01;1370.70;;;999.90;;
53036;SDS011;38924;52.134;4.666;2022-07-23T11:00:27;1365.15;;;999.90;;
53036;SDS011;38924;52.134;4.666;2022-07-23T11:02:55;1385.72;;;999.90;;
53036;SDS011;38924;52.134;4.666;2022-07-23T11:05:23;1467.65;;;999.90;;
53036;SDS011;38924;52.134;4.666;2022-07-23T11:10:33;1381.78;;;999.90;;
53036;SDS011;38924;52.134;4.666;2022-07-23T11:26:40;1387.20;;;999.90;;
53036;SDS011;38924;52.134;4.666;2022-07-23T11:32:25;1356.72;;;999.90;;
53036;SDS011;38924;52.134;4.666;2022-07-23T11:34:53;1358.93;;;999.90;;
53036;SDS011;38924;52.134;4.666;2022-07-23T11:37:29;1418.68;;;999.90;;
53036;SDS011;38924;52.134;4.666;2022-07-23T11:39:55;1347.45;;;999.90;;
53036;SDS011;38924;52.134;4.666;2022-07-23T11:42:21;1394.88;;;999.90;;
53036;SDS011;38924;52.134;4.666;2022-07-23T11:44:47;1374.70;;;999.90;;
53036;SDS011;38924;52.134;4.666;2022-07-23T11:47:20;1380.55;;;999.90;;
53036;SDS011;38924;52.134;4.666;2022-07-23T11:50:22;1385.57;;;999.90;;
53036;SDS011;38924;52.134;4.666;2022-07-23T11:52:38;1404.82;;;999.90;;
53036;SDS011;38924;52.134;4.666;2022-07-23T11:55:05;1304.85;;;999.90;;
53036;SDS011;38924;52.134;4.666;2022-07-23T11:57:32;1358.50;;;999.90;;
53036;SDS011;38924;52.134;4.666;2022-07-23T12:02:38;1329.82;;;999.90;;
53036;SDS011;38924;52.134;4.666;2022-07-23T12:05:04;1352.28;;;999.90;;
53036;SDS011;38924;52.134;4.666;2022-07-23T12:09:57;1381.45;;;999.90;;
53036;SDS011;38924;52.134;4.666;2022-07-23T12:12:23;1318.25;;;999.90;;
53036;SDS011;38924;52.134;4.666;2022-07-23T12:14:50;1338.22;;;999.90;;
53036;SDS011;38924;52.134;4.666;2022-07-23T12:17:17;1286.30;;;999.90;;
53036;SDS011;38924;52.134;4.666;2022-07-23T12:19:43;1334.35;;;999.90;;
53036;SDS011;38924;52.134;4.666;2022-07-23T12:22:09;1342.85;;;999.90;;
53036;SDS011;38924;52.134;4.666;2022-07-23T12:27:21;1343.22;;;999.90;;
53036;SDS011;38924;52.134;4.666;2022-07-23T12:29:50;1349.88;;;999.90;;
53036;SDS011;38924;52.134;4.666;2022-07-23T12:32:19;1356.93;;;999.90;;
53036;SDS011;38924;52.134;4.666;2022-07-23T12:34:45;1320.75;;;999.90;;
53036;SDS011;38924;52.134;4.666;2022-07-23T12:40:25;1376.20;;;999.90;;
53036;SDS011;38924;52.134;4.666;2022-07-23T12:42:58;1432.93;;;999.90;;
53036;SDS011;38924;52.134;4.666;2022-07-23T12:45:24;1288.10;;;999.90;;
53036;SDS011;38924;52.134;4.666;2022-07-23T12:47:51;1300.90;;;999.90;;
53036;SDS011;38924;52.134;4.666;2022-07-23T12:50:41;1330.70;;;999.90;;
53036;SDS011;38924;52.134;4.666;2022-07-23T12:53:11;1335.93;;;999.90;;
53036;SDS011;38924;52.134;4.666;2022-07-23T12:55:38;1345.97;;;999.90;;
53036;SDS011;38924;52.134;4.666;2022-07-23T12:58:14;1353.85;;;999.90;;
53036;SDS011;38924;52.134;4.666;2022-07-23T13:03:26;1303.10;;;999.90;;
53036;SDS011;38924;52.134;4.666;2022-07-23T13:05:52;1244.90;;;999.90;;
53036;SDS011;38924;52.134;4.666;2022-07-23T13:08:18;1365.93;;;999.90;;
53036;SDS011;38924;52.134;4.666;2022-07-23T13:10:47;1312.30;;;999.90;;
53036;SDS011;38924;52.134;4.666;2022-07-23T13:13:15;1374.55;;;999.90;;
53036;SDS011;38924;52.134;4.666;2022-07-23T13:15:42;1327.72;;;999.90;;
53036;SDS011;38924;52.134;4.666;2022-07-23T13:18:08;1343.97;;;999.90;;
53036;SDS011;38924;52.134;4.666;2022-07-23T13:20:34;1376.47;;;999.90;;
53036;SDS011;38924;52.134;4.666;2022-07-23T13:23:00;1365.97;;;999.90;;
53036;SDS011;38924;52.134;4.666;2022-07-23T13:25:26;1357.00;;;999.90;;
53036;SDS011;38924;52.134;4.666;2022-07-23T13:27:52;1403.97;;;999.90;;
53036;SDS011;38924;52.134;4.666;2022-07-23T13:30:18;1324.30;;;999.90;;
53036;SDS011;38924;52.134;4.666;2022-07-23T13:32:43;1434.28;;;999.90;;
53036;SDS011;38924;52.134;4.666;2022-07-23T13:35:09;1401.88;;;999.90;;
53036;SDS011;38924;52.134;4.666;2022-07-23T13:37:35;1419.75;;;999.90;;
53036;SDS011;38924;52.134;4.666;2022-07-23T13:40:01;1389.53;;;999.90;;
53036;SDS011;38924;52.134;4.666;2022-07-23T13:42:27;1357.35;;;999.90;;
53036;SDS011;38924;52.134;4.666;2022-07-23T13:44:52;1325.93;;;999.90;;
53036;SDS011;38924;52.134;4.666;2022-07-23T13:47:18;1416.72;;;999.90;;
53036;SDS011;38924;52.134;4.666;2022-07-23T13:49:44;1329.38;;;999.90;;
53036;SDS011;38924;52.134;4.666;2022-07-23T13:52:09;1304.35;;;999.90;;
53036;SDS011;38924;52.134;4.666;2022-07-23T13:54:35;1410.18;;;999.90;;
53036;SDS011;38924;52.134;4.666;2022-07-23T13:57:01;1324.75;;;999.90;;
53036;SDS011;38924;52.134;4.666;2022-07-23T13:59:26;1448.30;;;999.90;;
53036;SDS011;38924;52.134;4.666;2022-07-23T14:01:53;1335.68;;;999.90;;
53036;SDS011;38924;52.134;4.666;2022-07-23T14:04:18;1356.78;;;999.90;;
53036;SDS011;38924;52.134;4.666;2022-07-23T14:06:44;1371.15;;;999.90;;
53036;SDS011;38924;52.134;4.666;2022-07-23T14:09:10;1431.05;;;999.90;;
53036;SDS011;38924;52.134;4.666;2022-07-23T14:11:35;1376.72;;;999.90;;
53036;SDS011;38924;52.134;4.666;2022-07-23T14:14:01;1414.10;;;999.90;;
53036;SDS011;38924;52.134;4.666;2022-07-23T14:16:27;1424.68;;;999.90;;
53036;SDS011;38924;52.134;4.666;2022-07-23T14:18:53;1403.40;;;999.90;;
53036;SDS011;38924;52.134;4.666;2022-07-23T14:21:19;1402.43;;;999.90;;
53036;SDS011;38924;52.134;4.666;2022-07-23T14:23:44;1372.68;;;999.90;;
53036;SDS011;38924;52.134;4.666;2022-07-23T14:26:12;1395.22;;;999.90;;
53036;SDS011;38924;52.134;4.666;2022-07-23T14:28:38;1347.10;;;999.90;;
53036;SDS011;38924;52.134;4.666;2022-07-23T14:31:04;1439.72;;;999.90;;
53036;SDS011;38924;52.134;4.666;2022-07-23T14:33:29;1459.53;;;999.90;;
53036;SDS011;38924;52.134;4.666;2022-07-23T14:35:55;1457.68;;;999.90;;
53036;SDS011;38924;52.134;4.666;2022-07-23T14:38:21;1423.97;;;999.90;;
53036;SDS011;38924;52.134;4.666;2022-07-23T14:40:46;1429.53;;;999.90;;
53036;SDS011;38924;52.134;4.666;2022-07-23T14:43:12;1439.25;;;999.90;;
53036;SDS011;38924;52.134;4.666;2022-07-23T14:45:38;1466.90;;;999.90;;
53036;SDS011;38924;52.134;4.666;2022-07-23T14:48:04;1450.03;;;999.90;;